Airfield :
LOGIN :

Register | Disclaimer

   EN    FR    IT 

 










Legend :    VFR   Marginal VFR   IFR   Intensive IFR   Very Intensive IFR
Visi :
Ceiling :
>= 8 km
>= 3000ft
5 to 8 km
1000 to 3000 ft
1500m to 5 km
500 to 1000 ft
800 to 1500m
200 to 500 ft
< 800m
< 200 ft
Symbols :   Thunderstorms  Fog  Heavy snow  Heavy precipitations  Wind > 20 kt
SIGMETs :     Misc.  Thunderstorms  Icing  Turbulence  Mountain Waves  Volcanic Ashes






- Airport Elevation : 2297 ft


LEGA - Armilla

CURRENT METAR :
  • 191800Z 19011KT 9999 FEW020 SCT060 12/08 Q1027

EXPIRED METARs :
  • 191700Z 19010KT 9999 FEW030 SCT060 15/08 Q1027
  • 191600Z 22005KT 140V250 9999 FEW050 SCT060 17/07 Q1027

TAF TAF LEGA
Valid from the 19 at 15:00 until the 20 at 00:00 UTC


191400Z 1915/1924 17008KT 9999 SCT035



MET'MAP, your aeronautical weather chart ! - Copyright ORBIFLY December 2007 - Disclaimer

ORBIFLY MET'MAP TEAM :

Programming & Development : Alexandra Zaïnal
Concept & original design : Baudouin d'Aumeries
Assistance for programming : Marc-Olivier Méhu
Technical & hardware support : Manuel Goepfert

Contact : metmap@orbifly.com




SOURCES & CREDITS :

   NOAA